createdAt,value
2022-08-28T00:00:38.178Z,3.97
2022-08-28T00:05:34.138Z,3.90
2022-08-28T00:08:02.130Z,4.40
2022-08-28T00:10:29.200Z,4.13
2022-08-28T00:12:57.482Z,4.20
2022-08-28T00:17:59.432Z,3.63
2022-08-28T00:20:27.598Z,3.63
2022-08-28T00:22:55.598Z,3.92
2022-08-28T00:25:24.266Z,3.53
2022-08-28T00:27:52.909Z,4.05
2022-08-28T00:30:27.403Z,3.95
2022-08-28T00:32:56.848Z,4.10
2022-08-28T00:35:24.123Z,3.97
2022-08-28T00:37:51.812Z,3.78
2022-08-28T00:43:02.496Z,4.68
2022-08-28T00:45:30.900Z,4.00
2022-08-28T00:50:27.768Z,3.67
2022-08-28T00:52:59.839Z,3.70
2022-08-28T00:55:28.345Z,3.72
2022-08-28T00:57:59.095Z,3.63
2022-08-28T01:00:33.791Z,2.80
2022-08-28T01:03:01.351Z,3.45
2022-08-28T01:05:29.756Z,3.72
2022-08-28T01:07:58.827Z,3.85
2022-08-28T01:10:29.330Z,3.58
2022-08-28T01:12:57.585Z,3.25
2022-08-28T01:15:31.937Z,3.08
2022-08-28T01:18:08.058Z,3.72
2022-08-28T01:20:42.543Z,3.42
2022-08-28T01:23:29.054Z,3.60
2022-08-28T01:25:57.528Z,3.58
2022-08-28T01:28:24.500Z,3.30
2022-08-28T01:30:51.254Z,3.72
2022-08-28T01:33:18.430Z,3.72
2022-08-28T01:35:47.695Z,3.47
2022-08-28T01:38:19.623Z,3.67
2022-08-28T01:40:53.264Z,3.05
2022-08-28T01:43:23.584Z,3.28
2022-08-28T01:45:57.563Z,2.80
2022-08-28T01:48:26.497Z,3.95
2022-08-28T01:50:53.278Z,3.42
2022-08-28T01:53:25.133Z,3.65
2022-08-28T01:55:55.700Z,3.20
2022-08-28T01:58:23.983Z,3.38
2022-08-28T02:03:17.392Z,3.55
2022-08-28T02:05:44.222Z,3.67
2022-08-28T02:08:10.984Z,3.63
2022-08-28T02:10:39.528Z,3.75
2022-08-28T02:13:07.709Z,3.70
2022-08-28T02:15:36.471Z,3.50
2022-08-28T02:18:03.881Z,3.30
2022-08-28T02:20:31.132Z,3.25
2022-08-28T02:22:58.518Z,3.05
2022-08-28T02:25:27.274Z,3.33
2022-08-28T02:27:54.828Z,3.38
2022-08-28T02:30:22.190Z,3.07
2022-08-28T02:32:50.057Z,3.60
2022-08-28T02:35:18.800Z,3.20
2022-08-28T02:37:47.738Z,3.25
2022-08-28T02:40:16.955Z,3.00
2022-08-28T02:42:44.575Z,3.10
2022-08-28T02:45:12.668Z,2.97
2022-08-28T02:47:40.931Z,3.22
2022-08-28T02:52:37.656Z,2.92
2022-08-28T02:55:05.934Z,3.00
2022-08-28T02:57:32.899Z,3.33
2022-08-28T02:59:59.853Z,3.20
2022-08-28T03:02:26.720Z,3.03
2022-08-28T03:04:54.484Z,3.05
2022-08-28T03:07:22.635Z,4.05
2022-08-28T03:09:50.051Z,3.47
2022-08-28T03:12:17.147Z,2.83
2022-08-28T03:14:43.899Z,2.90
2022-08-28T03:17:10.951Z,3.30
2022-08-28T03:19:37.751Z,3.15
2022-08-28T03:22:04.639Z,2.95
2022-08-28T03:24:31.417Z,2.72
2022-08-28T03:26:58.465Z,3.03
2022-08-28T03:29:25.169Z,2.95
2022-08-28T03:31:52.719Z,2.60
2022-08-28T03:34:19.551Z,2.60
2022-08-28T03:36:46.504Z,3.28
2022-08-28T03:39:13.904Z,2.85
2022-08-28T03:41:41.148Z,2.92
2022-08-28T03:44:07.908Z,3.20
2022-08-28T03:46:35.533Z,3.10
2022-08-28T03:49:04.299Z,2.95
2022-08-28T03:51:34.183Z,3.15
2022-08-28T03:54:01.868Z,3.08
2022-08-28T03:56:30.485Z,2.53
2022-08-28T03:59:00.190Z,2.72
2022-08-28T04:01:27.226Z,2.90
2022-08-28T04:03:54.086Z,2.63
2022-08-28T04:06:20.861Z,2.38
2022-08-28T04:08:47.943Z,2.90
2022-08-28T04:11:15.060Z,2.22
2022-08-28T04:13:42.088Z,3.00
2022-08-28T04:16:12.135Z,3.10
2022-08-28T04:18:41.795Z,2.78
2022-08-28T04:21:15.035Z,2.53
2022-08-28T04:23:43.467Z,2.70
2022-08-28T04:28:38.515Z,2.50
2022-08-28T04:31:08.031Z,2.47
2022-08-28T04:33:35.773Z,2.65
2022-08-28T04:36:05.965Z,2.80
2022-08-28T04:38:32.959Z,2.58
2022-08-28T04:40:59.765Z,1.98
2022-08-28T04:43:26.634Z,2.30
2022-08-28T04:45:53.440Z,2.33
2022-08-28T04:48:20.206Z,2.42
2022-08-28T04:50:49.232Z,2.40
2022-08-28T04:53:18.908Z,2.95
2022-08-28T04:55:53.858Z,2.38
2022-08-28T04:58:24.047Z,2.65
2022-08-28T05:00:52.954Z,2.55
2022-08-28T05:03:20.551Z,1.98
2022-08-28T05:05:53.211Z,2.33
2022-08-28T05:08:24.067Z,2.92
2022-08-28T05:10:51.054Z,2.58
2022-08-28T05:13:18.567Z,2.50
2022-08-28T05:15:50.908Z,2.43
2022-08-28T05:18:21.313Z,2.30
2022-08-28T05:20:48.677Z,2.58
2022-08-28T05:23:17.988Z,2.20
2022-08-28T05:25:48.008Z,2.60
2022-08-28T05:28:19.505Z,2.25
2022-08-28T05:30:46.918Z,2.33
2022-08-28T05:33:15.153Z,2.38
2022-08-28T05:35:45.207Z,2.20
2022-08-28T05:38:13.561Z,2.40
2022-08-28T05:40:46.287Z,2.30
2022-08-28T05:43:15.269Z,2.15
2022-08-28T05:45:42.696Z,2.20
2022-08-28T05:48:09.721Z,2.30
2022-08-28T05:50:39.682Z,2.28
2022-08-28T05:53:13.921Z,2.10
2022-08-28T05:55:40.879Z,2.50
2022-08-28T05:58:26.323Z,2.40
2022-08-28T06:00:53.205Z,2.60
2022-08-28T06:03:19.902Z,2.80
2022-08-28T06:05:46.608Z,2.70
2022-08-28T06:08:13.584Z,2.80
2022-08-28T06:10:45.912Z,3.13
2022-08-28T06:13:17.679Z,2.63
2022-08-28T06:15:47.006Z,2.65
2022-08-28T06:18:15.495Z,2.65
2022-08-28T06:20:44.887Z,2.40
2022-08-28T06:23:16.038Z,2.75
2022-08-28T06:25:51.917Z,2.00
2022-08-28T06:28:24.031Z,2.40
2022-08-28T06:31:18.623Z,2.30
2022-08-28T06:33:39.910Z,2.03
2022-08-28T06:36:07.779Z,2.13
2022-08-28T06:38:34.970Z,2.42
2022-08-28T06:41:02.488Z,2.22
2022-08-28T06:43:29.715Z,2.03
2022-08-28T06:45:57.851Z,2.13
2022-08-28T06:48:27.513Z,1.98
2022-08-28T06:50:55.866Z,2.38
2022-08-28T06:53:25.638Z,2.35
2022-08-28T06:56:18.423Z,2.10
2022-08-28T06:58:55.183Z,1.85
2022-08-28T07:01:25.566Z,2.20
2022-08-28T07:03:54.650Z,2.00
2022-08-28T07:06:23.415Z,2.60
2022-08-28T07:08:51.052Z,2.33
2022-08-28T07:11:26.077Z,1.92
2022-08-28T07:13:53.854Z,2.10
2022-08-28T07:16:23.102Z,1.80
2022-08-28T07:18:51.718Z,1.65
2022-08-28T07:21:18.506Z,2.40
2022-08-28T07:23:46.222Z,2.38
2022-08-28T07:26:16.711Z,2.63
2022-08-28T07:28:45.508Z,2.40
2022-08-28T07:31:19.051Z,2.70
2022-08-28T07:33:46.635Z,2.70
2022-08-28T07:36:29.373Z,2.97
2022-08-28T07:38:58.398Z,2.42
2022-08-28T07:41:28.441Z,2.00
2022-08-28T07:44:13.919Z,1.90
2022-08-28T07:46:41.171Z,2.15
2022-08-28T07:49:10.850Z,1.70
2022-08-28T07:51:37.748Z,1.83
2022-08-28T07:54:05.253Z,2.38
2022-08-28T07:56:32.752Z,2.03
2022-08-28T07:59:03.337Z,2.43
2022-08-28T08:01:31.476Z,2.00
2022-08-28T08:04:01.609Z,1.75
2022-08-28T08:06:34.490Z,1.30
2022-08-28T08:09:02.331Z,1.63
2022-08-28T08:11:32.246Z,1.40
2022-08-28T08:14:05.685Z,1.90
2022-08-28T08:16:39.090Z,1.52
2022-08-28T08:19:09.620Z,1.60
2022-08-28T08:21:37.149Z,1.95
2022-08-28T08:24:04.119Z,1.80
2022-08-28T08:26:30.837Z,1.00
2022-08-28T08:28:58.102Z,1.40
2022-08-28T08:31:26.778Z,1.73
2022-08-28T08:33:57.406Z,1.40
2022-08-28T08:36:26.573Z,1.65
2022-08-28T08:38:59.361Z,1.17
2022-08-28T08:41:34.689Z,1.10
2022-08-28T08:44:03.597Z,2.22
2022-08-28T08:46:46.235Z,1.35
2022-08-28T08:49:18.840Z,1.38
2022-08-28T08:52:08.107Z,1.60
2022-08-28T08:54:59.254Z,1.05
2022-08-28T08:57:27.617Z,1.05
2022-08-28T08:59:54.565Z,1.45
2022-08-28T09:02:31.206Z,1.08
2022-08-28T09:05:13.515Z,1.55
2022-08-28T09:07:53.267Z,1.20
2022-08-28T09:10:20.157Z,1.20
2022-08-28T09:12:57.236Z,1.17
2022-08-28T09:15:31.328Z,1.30
2022-08-28T09:18:10.860Z,1.13
2022-08-28T09:20:37.671Z,1.33
2022-08-28T09:23:13.095Z,1.08
2022-08-28T09:26:12.572Z,0.98
2022-08-28T09:28:41.442Z,1.30
2022-08-28T09:36:29.122Z,1.00
2022-08-28T09:39:04.917Z,0.93
2022-08-28T09:41:51.407Z,0.98
2022-08-28T09:44:18.136Z,1.50
2022-08-28T09:46:51.287Z,1.20
2022-08-28T09:49:25.542Z,1.10
2022-08-28T09:51:52.793Z,1.02
2022-08-28T09:54:42.707Z,1.30
2022-08-28T09:57:09.419Z,1.20
2022-08-28T09:59:36.136Z,1.00
2022-08-28T10:02:18.093Z,1.10
2022-08-28T10:05:02.589Z,1.20
2022-08-28T10:07:46.409Z,1.30
2022-08-28T10:10:19.009Z,1.00
2022-08-28T10:13:01.436Z,1.25
2022-08-28T10:15:49.886Z,1.20
2022-08-28T10:18:54.253Z,0.77
2022-08-28T10:21:34.929Z,1.10
2022-08-28T10:24:08.430Z,1.00
2022-08-28T10:26:54.199Z,1.10
2022-08-28T10:29:41.281Z,1.00
2022-08-28T10:32:21.143Z,1.00
2022-08-28T10:34:59.714Z,1.27
2022-08-28T10:37:41.559Z,1.20
2022-08-28T10:40:23.056Z,1.10
2022-08-28T10:43:11.560Z,1.00
2022-08-28T10:45:39.524Z,1.15
2022-08-28T10:48:32.027Z,1.10
2022-08-28T10:51:11.728Z,1.27
2022-08-28T10:53:52.932Z,1.15
2022-08-28T10:56:30.369Z,1.00
2022-08-28T10:58:59.274Z,1.10
2022-08-28T11:01:28.297Z,1.05
2022-08-28T11:03:57.187Z,1.00
2022-08-28T11:06:51.108Z,1.30
2022-08-28T11:09:34.302Z,1.08
2022-08-28T11:12:09.585Z,1.00
2022-08-28T11:14:48.120Z,1.00
2022-08-28T11:17:25.307Z,1.10
2022-08-28T11:20:10.657Z,1.40
2022-08-28T11:22:48.857Z,1.38
2022-08-28T11:25:32.492Z,1.10
2022-08-28T11:28:25.478Z,1.20
2022-08-28T11:31:19.153Z,1.00
2022-08-28T11:33:58.931Z,0.90
2022-08-28T11:36:28.097Z,1.17
2022-08-28T11:38:55.495Z,0.98
2022-08-28T11:41:38.544Z,1.00
2022-08-28T11:44:12.411Z,1.27
2022-08-28T11:46:48.704Z,1.05
2022-08-28T11:49:26.173Z,1.38
2022-08-28T11:52:11.851Z,1.30
2022-08-28T11:55:03.709Z,1.08
2022-08-28T12:00:55.012Z,0.98
2022-08-28T12:03:36.838Z,1.02
2022-08-28T12:06:04.323Z,0.98
2022-08-28T12:08:48.742Z,1.10
2022-08-28T12:11:40.273Z,1.00
2022-08-28T12:14:35.676Z,0.90
2022-08-28T12:17:05.810Z,0.80
2022-08-28T12:19:54.614Z,1.08
2022-08-28T12:22:26.334Z,1.05
2022-08-28T12:24:59.217Z,0.98
2022-08-28T12:27:26.881Z,1.10
2022-08-28T12:29:59.244Z,0.90
2022-08-28T12:32:28.734Z,0.90
2022-08-28T12:34:58.442Z,0.90
2022-08-28T12:37:52.767Z,0.88
2022-08-28T12:40:25.322Z,1.00
2022-08-28T12:43:01.837Z,1.00
2022-08-28T12:45:56.345Z,0.90
2022-08-28T12:48:33.693Z,1.33
2022-08-28T12:51:14.963Z,0.93
2022-08-28T12:53:49.921Z,0.95
2022-08-28T12:56:19.395Z,1.10
2022-08-28T12:58:47.658Z,0.95
2022-08-28T13:01:27.567Z,1.13
2022-08-28T13:04:04.409Z,1.20
2022-08-28T13:06:36.621Z,0.85
2022-08-28T13:09:24.613Z,0.90
2022-08-28T13:11:51.689Z,0.70
2022-08-28T13:14:43.948Z,0.95
2022-08-28T13:17:12.792Z,0.90
2022-08-28T13:19:40.047Z,1.23
2022-08-28T13:22:28.433Z,1.10
2022-08-28T13:25:00.435Z,1.05
2022-08-28T13:27:28.190Z,0.82
2022-08-28T13:30:20.857Z,1.00
2022-08-28T13:33:04.525Z,0.88
2022-08-28T13:35:36.158Z,0.98
2022-08-28T13:38:07.027Z,1.20
2022-08-28T13:40:59.350Z,0.93
2022-08-28T13:43:29.658Z,1.17
2022-08-28T13:45:56.842Z,1.30
2022-08-28T13:48:27.698Z,1.42
2022-08-28T13:51:03.112Z,1.00
2022-08-28T13:53:32.329Z,1.20
2022-08-28T13:56:00.360Z,0.80
2022-08-28T13:58:28.195Z,0.95
2022-08-28T14:00:57.351Z,0.98
2022-08-28T14:03:36.356Z,1.20
2022-08-28T14:06:11.569Z,0.90
2022-08-28T14:08:40.317Z,0.90
2022-08-28T14:11:12.738Z,0.82
2022-08-28T14:13:40.734Z,1.20
2022-08-28T14:16:16.711Z,1.15
2022-08-28T14:18:43.566Z,1.05
2022-08-28T14:21:10.289Z,1.17
2022-08-28T14:23:37.060Z,1.10
2022-08-28T14:26:05.803Z,1.13
2022-08-28T14:28:32.575Z,1.27
2022-08-28T14:30:59.306Z,1.02
2022-08-28T14:33:26.026Z,1.13
2022-08-28T14:35:52.851Z,1.25
2022-08-28T14:38:19.526Z,1.08
2022-08-28T14:40:46.334Z,1.02
2022-08-28T14:43:14.642Z,1.20
2022-08-28T14:45:46.295Z,1.20
2022-08-28T14:48:14.747Z,1.20
2022-08-28T14:53:09.713Z,1.02
2022-08-28T14:55:41.849Z,1.17
2022-08-28T14:58:08.607Z,1.38
2022-08-28T15:00:40.195Z,1.15
2022-08-28T15:03:07.152Z,1.00
2022-08-28T15:05:34.122Z,1.13
2022-08-28T15:08:00.905Z,1.10
2022-08-28T15:10:27.635Z,1.27
2022-08-28T15:12:54.327Z,1.10
2022-08-28T15:15:22.559Z,1.30
2022-08-28T15:17:49.265Z,1.10
2022-08-28T15:20:16.081Z,1.10
2022-08-28T15:22:42.963Z,1.10
2022-08-28T15:25:09.801Z,1.10
2022-08-28T15:27:36.658Z,1.48
2022-08-28T15:30:04.518Z,1.20
2022-08-28T15:32:31.721Z,1.23
2022-08-28T15:34:58.484Z,1.40
2022-08-28T15:37:25.279Z,1.50
2022-08-28T15:40:10.830Z,1.30
2022-08-28T15:42:37.668Z,1.10
2022-08-28T15:45:04.744Z,0.80
2022-08-28T15:47:31.445Z,1.00
2022-08-28T15:49:58.286Z,1.13
2022-08-28T15:52:25.159Z,0.98
2022-08-28T15:54:52.769Z,1.30
2022-08-28T15:57:19.659Z,1.20
2022-08-28T15:59:49.451Z,1.40
2022-08-28T16:02:22.773Z,1.20
2022-08-28T16:04:50.269Z,1.10
2022-08-28T16:07:18.492Z,1.00
2022-08-28T16:12:12.333Z,1.30
2022-08-28T16:14:39.046Z,1.20
2022-08-28T16:17:10.634Z,1.23
2022-08-28T16:19:42.163Z,1.02
2022-08-28T16:22:15.961Z,1.30
2022-08-28T16:24:43.911Z,0.90
2022-08-28T16:27:15.476Z,1.10
2022-08-28T16:29:43.590Z,1.20
2022-08-28T16:32:11.853Z,1.10
2022-08-28T16:34:39.827Z,1.10
2022-08-28T16:37:07.782Z,1.20
2022-08-28T16:42:02.127Z,1.25
2022-08-28T16:44:28.902Z,1.17
2022-08-28T16:46:56.102Z,1.08
2022-08-28T16:49:23.727Z,1.17
2022-08-28T16:51:50.886Z,0.90
2022-08-28T16:54:18.384Z,1.08
2022-08-28T16:56:46.191Z,0.90
2022-08-28T16:59:20.392Z,1.20
2022-08-28T17:01:53.122Z,1.30
2022-08-28T17:04:21.609Z,0.85
2022-08-28T17:06:48.483Z,1.40
2022-08-28T17:09:15.235Z,1.13
2022-08-28T17:11:42.048Z,1.50
2022-08-28T17:14:11.017Z,1.00
2022-08-28T17:16:37.858Z,1.17
2022-08-28T17:19:04.687Z,1.35
2022-08-28T17:21:50.388Z,1.00
2022-08-28T17:24:17.162Z,1.00
2022-08-28T17:26:44.483Z,1.13
2022-08-28T17:29:11.567Z,1.20
2022-08-28T17:31:39.182Z,1.38
2022-08-28T17:34:10.458Z,1.27
2022-08-28T17:36:39.351Z,1.08
2022-08-28T17:39:09.298Z,1.15
2022-08-28T17:41:36.060Z,1.00
2022-08-28T17:44:03.271Z,1.10
2022-08-28T17:46:33.979Z,1.15
2022-08-28T17:49:05.357Z,0.98
2022-08-28T17:51:42.050Z,1.00
2022-08-28T17:54:10.858Z,1.13
2022-08-28T17:56:38.006Z,1.33
2022-08-28T17:59:05.045Z,0.90
2022-08-28T18:01:32.001Z,1.10
2022-08-28T18:03:58.864Z,1.10
2022-08-28T18:06:25.616Z,1.02
2022-08-28T18:08:52.387Z,1.35
2022-08-28T18:11:19.356Z,1.30
2022-08-28T18:13:46.492Z,1.33
2022-08-28T18:16:13.576Z,1.20
2022-08-28T18:18:41.466Z,1.10
2022-08-28T18:21:10.607Z,1.10
2022-08-28T18:23:37.818Z,2.88
2022-08-28T18:26:04.766Z,1.58
2022-08-28T18:28:33.493Z,1.38
2022-08-28T18:31:01.321Z,1.50
2022-08-28T18:33:29.682Z,1.05
2022-08-28T18:35:57.064Z,1.17
2022-08-28T18:38:27.810Z,1.30
2022-08-28T18:40:55.527Z,1.30
2022-08-28T18:43:22.530Z,1.00
2022-08-28T18:45:49.573Z,1.25
2022-08-28T18:48:16.556Z,1.48
2022-08-28T18:50:46.409Z,1.00
2022-08-28T18:53:14.275Z,1.17
2022-08-28T18:55:41.323Z,1.25
2022-08-28T18:58:11.114Z,1.10
2022-08-28T19:00:42.246Z,1.10
2022-08-28T19:03:09.414Z,1.30
2022-08-28T19:05:38.277Z,1.35
2022-08-28T19:08:05.855Z,0.98
2022-08-28T19:10:34.976Z,1.20
2022-08-28T19:13:02.776Z,1.50
2022-08-28T19:15:31.221Z,1.73
2022-08-28T19:18:00.313Z,1.30
2022-08-28T19:20:28.240Z,1.10
2022-08-28T19:22:56.115Z,1.20
2022-08-28T19:25:28.346Z,0.98
2022-08-28T19:27:59.262Z,1.23
2022-08-28T19:30:31.017Z,1.00
2022-08-28T19:32:57.816Z,0.80
2022-08-28T19:35:26.286Z,1.10
2022-08-28T19:37:54.086Z,0.93
2022-08-28T19:40:21.291Z,1.10
2022-08-28T19:42:49.936Z,1.08
2022-08-28T19:45:17.141Z,1.00
2022-08-28T19:47:44.093Z,2.90
2022-08-28T19:50:12.219Z,2.00
2022-08-28T19:52:39.799Z,1.80
2022-08-28T19:55:07.465Z,1.23
2022-08-28T19:57:34.574Z,1.33
2022-08-28T20:00:02.050Z,1.50
2022-08-28T20:02:29.562Z,1.40
2022-08-28T20:04:56.539Z,1.40
2022-08-28T20:07:24.812Z,1.13
2022-08-28T20:12:19.590Z,1.63
2022-08-28T20:14:46.490Z,1.40
2022-08-28T20:17:14.087Z,1.48
2022-08-28T20:19:41.429Z,1.33
2022-08-28T20:22:08.237Z,1.88
2022-08-28T20:24:35.300Z,1.58
2022-08-28T20:27:02.077Z,1.40
2022-08-28T20:29:29.214Z,1.50
2022-08-28T20:31:56.142Z,1.30
2022-08-28T20:34:23.309Z,1.58
2022-08-28T20:36:50.028Z,1.40
2022-08-28T20:39:16.879Z,1.40
2022-08-28T20:41:44.876Z,1.73
2022-08-28T20:44:13.730Z,1.75
2022-08-28T20:46:42.126Z,1.58
2022-08-28T20:49:11.010Z,1.75
2022-08-28T20:51:53.416Z,1.33
2022-08-28T20:54:21.487Z,1.80
2022-08-28T20:56:50.953Z,1.60
2022-08-28T20:59:18.584Z,1.60
2022-08-28T21:01:45.441Z,2.00
2022-08-28T21:04:12.329Z,1.60
2022-08-28T21:06:39.097Z,1.58
2022-08-28T21:09:05.856Z,1.70
2022-08-28T21:11:32.573Z,1.50
2022-08-28T21:13:59.342Z,1.30
2022-08-28T21:16:26.106Z,1.30
2022-08-28T21:19:14.399Z,1.67
2022-08-28T21:21:41.202Z,1.30
2022-08-28T21:24:10.681Z,1.30
2022-08-28T21:26:39.360Z,1.70
2022-08-28T21:29:10.208Z,2.15
2022-08-28T21:31:37.496Z,1.60
2022-08-28T21:34:04.185Z,1.30
2022-08-28T21:36:31.555Z,1.20
2022-08-28T21:38:58.485Z,1.30
2022-08-28T21:41:25.483Z,1.50
2022-08-28T21:43:52.245Z,1.20
2022-08-28T21:46:19.241Z,1.38
2022-08-28T21:48:49.552Z,2.08
2022-08-28T21:51:18.058Z,1.98
2022-08-28T21:56:15.148Z,2.00
2022-08-28T21:58:41.981Z,1.58
2022-08-28T22:01:12.386Z,1.70
2022-08-28T22:03:41.535Z,1.50
2022-08-28T22:06:12.839Z,1.70
2022-08-28T22:08:40.828Z,1.33
2022-08-28T22:11:08.528Z,1.33
2022-08-28T22:13:35.582Z,1.83
2022-08-28T22:16:02.753Z,1.63
2022-08-28T22:18:32.056Z,1.30
2022-08-28T22:21:20.281Z,1.45
2022-08-28T22:23:48.659Z,1.42
2022-08-28T22:26:19.272Z,1.17
2022-08-28T22:28:46.955Z,1.40
2022-08-28T22:31:13.882Z,1.40
2022-08-28T22:33:41.246Z,1.50
2022-08-28T22:36:09.901Z,1.02
2022-08-28T22:38:38.082Z,1.27
2022-08-28T22:41:06.357Z,1.60
2022-08-28T22:43:33.308Z,1.17
2022-08-28T22:46:00.251Z,1.77
2022-08-28T22:48:27.158Z,1.85
2022-08-28T22:51:14.640Z,1.27
2022-08-28T22:53:43.644Z,1.25
2022-08-28T22:56:11.857Z,1.40
2022-08-28T22:58:39.415Z,1.50
2022-08-28T23:01:11.293Z,1.60
2022-08-28T23:03:39.655Z,1.60
2022-08-28T23:06:06.850Z,1.52
2022-08-28T23:08:34.297Z,1.90
2022-08-28T23:11:01.385Z,1.80
2022-08-28T23:13:29.658Z,1.60
2022-08-28T23:15:56.472Z,1.70
2022-08-28T23:18:23.233Z,1.60
2022-08-28T23:20:50.452Z,2.03
2022-08-28T23:23:18.897Z,1.73
2022-08-28T23:25:46.108Z,1.42
2022-08-28T23:28:12.980Z,1.77
2022-08-28T23:30:44.109Z,2.13
2022-08-28T23:33:23.144Z,1.70
2022-08-28T23:35:51.392Z,1.75
2022-08-28T23:38:18.579Z,1.50
2022-08-28T23:40:48.160Z,2.35
2022-08-28T23:43:16.136Z,1.38
2022-08-28T23:45:44.634Z,1.50
2022-08-28T23:48:11.754Z,1.50
2022-08-28T23:50:41.299Z,1.30
2022-08-28T23:53:09.330Z,1.20
2022-08-28T23:55:36.813Z,1.27
2022-08-28T23:58:04.075Z,1.70
